CSAV Loncomilla — VRFB3 — position and weather

sailwx.info

Track history (hours):
 
Tides and Currents Weather Stations Pressure Air Temp Water Temp Dewpoint Dewpoint Depression Visibility Wind Speed Wind Dir Waves Ship Positions

CSAV Loncomilla

Last reported at 2016-Aug-19 22:27 UTC. Time now 2016-Aug-31 23:29 UTC.
Position N 31°45' W 116°48'.
Warning: this ship's position is 12 days out of date.

Length 261 m; draft 12.1 m.

Type: Cargo ship. MMSI: 477207400.

Date/timePositionNaut miles runAvg speedWind from/ knotsBaromVisibWave heightAir tempDewpointWater temp
2016-Aug-19 22:27N 31°45' W 116°48'3 0.2
2016-Aug-19 11:16N 31°47' W 116°46'8 9.9
2016-Aug-19 10:30N 31°43' W 116°54'1111.2
2016-Aug-19 09:34N 31°38' W 117°05'1716.5
2016-Aug-19 08:33N 31°30' W 117°22'1716.9
2016-Aug-19 07:33N 31°22' W 117°39'2316.6
2016-Aug-19 06:12N 31°11' W 118°02'1116.2
2016-Aug-19 05:33N 31°06' W 118°13'1616.0
2016-Aug-19 04:34N 30°58' W 118°29'1616.1
2016-Aug-19 03:34N 30°50' W 118°45'1616.1
2016-Aug-19 02:34N 30°47' W 119°04'1616.3
2016-Aug-19 01:33N 30°45' W 119°23'1917.4
2016-Aug-19 00:26N 30°42' W 119°45'3417.7
2016-Aug-18 22:31N 30°36' W 120°24'1817.6
2016-Aug-18 21:29N 30°33' W 120°44'1617.4
2016-Aug-18 20:33N 30°31' W 121°03'1717.5
2016-Aug-18 19:34N 30°28' W 121°23'1817.7
2016-Aug-18 18:34N 30°25' W 121°43'1717.3
2016-Aug-18 17:33N 30°34' W 122°01'1817.7
2016-Aug-18 16:34N 30°43' W 122°18'1817.8
2016-Aug-18 15:34N 30°53' W 122°36'1917.7
2016-Aug-18 14:29N 31°03' W 122°55'1717.9
2016-Aug-18 13:32N 31°12' W 123°11'3517.8
2016-Aug-18 11:33N 31°31' W 123°46'  
Track history (hours):
 
Tides and Currents Weather Stations Pressure Air Temp Water Temp Dewpoint Dewpoint Depression Visibility Wind Speed Wind Dir Waves Ship Positions

CSAV Loncomilla

Last reported at 2016-Aug-19 22:27 UTC. Time now 2016-Aug-31 23:29 UTC.
Position N 31°45' W 116°48'.
Warning: this ship's position is 12 days out of date.

Length 261 m; draft 12.1 m.

Type: Cargo ship. MMSI: 477207400.

Date/timePositionNaut miles runAvg speedWind from/ knotsBaromVisibWave heightAir tempDewpointWater temp
2016-Aug-19 22:27N 31°45' W 116°48'3 0.2
2016-Aug-19 11:16N 31°47' W 116°46'8 9.9
2016-Aug-19 10:30N 31°43' W 116°54'1111.2
2016-Aug-19 09:34N 31°38' W 117°05'1716.5
2016-Aug-19 08:33N 31°30' W 117°22'1716.9
2016-Aug-19 07:33N 31°22' W 117°39'2316.6
2016-Aug-19 06:12N 31°11' W 118°02'1116.2
2016-Aug-19 05:33N 31°06' W 118°13'1616.0
2016-Aug-19 04:34N 30°58' W 118°29'1616.1
2016-Aug-19 03:34N 30°50' W 118°45'1616.1
2016-Aug-19 02:34N 30°47' W 119°04'1616.3
2016-Aug-19 01:33N 30°45' W 119°23'1917.4
2016-Aug-19 00:26N 30°42' W 119°45'3417.7
2016-Aug-18 22:31N 30°36' W 120°24'1817.6
2016-Aug-18 21:29N 30°33' W 120°44'1617.4
2016-Aug-18 20:33N 30°31' W 121°03'1717.5
2016-Aug-18 19:34N 30°28' W 121°23'1817.7
2016-Aug-18 18:34N 30°25' W 121°43'1717.3
2016-Aug-18 17:33N 30°34' W 122°01'1817.7
2016-Aug-18 16:34N 30°43' W 122°18'1817.8
2016-Aug-18 15:34N 30°53' W 122°36'1917.7
2016-Aug-18 14:29N 31°03' W 122°55'1717.9
2016-Aug-18 13:32N 31°12' W 123°11'3517.8
2016-Aug-18 11:33N 31°31' W 123°46'  

Dump ship's entire track history